Time;durP1;ratioP1;P1;durP2;ratioP2;P2;SDS_P1;SDS_P2;PMS_P1;PMS_P2;Temp;Humidity;BMP_temperature;BMP_pressure;BME280_temperature;BME280_humidity;BME280_pressure;Samples;Min_cycle;Max_cycle;Signal;HPM_P1;HPM_P2
2021/09/06 00:00:12;;;;;;;8.40;1.70;;;;;;;9.02;70.50;101281.23;112406;1205;22541;-64
2021/09/06 00:03:01;;;;;;;7.90;1.80;;;;;;;9.01;70.63;101279.26;112275;1207;24295;-64
2021/09/06 00:05:29;;;;;;;10.70;1.60;;;;;;;8.99;70.67;101279.05;112341;1209;22612;-64
2021/09/06 00:08:00;;;;;;;6.10;1.30;;;;;;;8.97;70.81;101279.83;112252;1204;22396;-64
2021/09/06 00:10:36;;;;;;;7.80;1.70;;;;;;;8.96;70.86;101276.13;112319;1205;25686;-64
2021/09/06 00:13:09;;;;;;;6.70;1.60;;;;;;;8.94;70.94;101280.89;112387;1206;24181;-63
2021/09/06 00:15:39;;;;;;;9.00;1.70;;;;;;;8.92;71.08;101283.25;112270;1203;24686;-63
2021/09/06 00:18:07;;;;;;;7.30;1.50;;;;;;;8.90;71.21;101283.55;112418;1205;23633;-63
2021/09/06 00:20:38;;;;;;;8.00;1.60;;;;;;;8.88;71.15;101283.92;112357;1205;22462;-63
2021/09/06 00:23:10;;;;;;;6.40;1.60;;;;;;;8.85;71.16;101283.30;112576;1197;22434;-57
2021/09/06 00:25:40;;;;;;;7.20;1.30;;;;;;;8.82;71.20;101278.77;111818;1203;22440;-58
2021/09/06 00:28:13;;;;;;;6.90;1.30;;;;;;;8.81;71.31;101275.29;111997;1205;22487;-59
2021/09/06 00:30:42;;;;;;;9.00;1.40;;;;;;;8.79;71.43;101277.72;111723;1203;22468;-59
2021/09/06 00:33:10;;;;;;;7.90;1.40;;;;;;;8.78;71.40;101276.42;111474;1205;22460;-57
2021/09/06 00:35:39;;;;;;;5.90;1.50;;;;;;;8.77;71.47;101275.23;111957;1204;22601;-59
2021/09/06 00:38:08;;;;;;;6.80;1.20;;;;;;;8.76;71.45;101276.48;111573;1204;22747;-58
2021/09/06 00:40:36;;;;;;;7.40;1.40;;;;;;;8.74;71.56;101272.08;114626;1204;24577;-58
2021/09/06 00:43:06;;;;;;;7.90;1.60;;;;;;;8.72;71.74;101271.90;111638;1203;22464;-58
2021/09/06 00:45:34;;;;;;;7.80;1.20;;;;;;;8.70;71.76;101271.15;111723;1204;23910;-58
2021/09/06 00:48:03;;;;;;;8.60;1.40;;;;;;;8.69;71.81;101273.65;111743;1208;25281;-58
2021/09/06 00:50:33;;;;;;;7.10;1.50;;;;;;;8.68;71.89;101266.77;111598;1206;22456;-57
2021/09/06 00:53:02;;;;;;;6.90;1.30;;;;;;;8.68;72.02;101268.13;111718;1204;22445;-58
2021/09/06 00:55:32;;;;;;;8.00;1.90;;;;;;;8.68;72.06;101263.20;111730;1204;22486;-57
2021/09/06 00:58:01;;;;;;;8.70;1.50;;;;;;;8.68;72.25;101265.17;111905;1205;22527;-58
2021/09/06 01:00:30;;;;;;;6.00;1.30;;;;;;;8.68;72.30;101263.29;111969;1205;26319;-58
2021/09/06 01:02:59;;;;;;;9.60;1.60;;;;;;;8.67;72.39;101267.30;111986;1198;22473;-58
2021/09/06 01:05:27;;;;;;;9.40;1.40;;;;;;;8.65;72.36;101264.71;111962;1204;24209;-58
2021/09/06 01:07:57;;;;;;;6.40;1.40;;;;;;;8.64;72.54;101266.57;111646;1209;24849;-57
2021/09/06 01:10:25;;;;;;;8.60;1.60;;;;;;;8.62;72.57;101263.67;111711;1207;24071;-56
2021/09/06 01:12:53;;;;;;;8.00;1.70;;;;;;;8.61;72.61;101265.38;111696;1205;27604;-59
2021/09/06 01:15:22;;;;;;;7.50;1.60;;;;;;;8.59;72.76;101265.75;111813;1205;27501;-59
2021/09/06 01:17:50;;;;;;;8.30;1.40;;;;;;;8.56;72.73;101264.48;111909;1204;25190;-58
2021/09/06 01:20:19;;;;;;;8.10;1.60;;;;;;;8.55;72.81;101263.18;111932;1205;23738;-57
2021/09/06 01:22:47;;;;;;;10.20;1.50;;;;;;;8.52;72.80;101255.94;112132;1205;22463;-58
2021/09/06 01:25:17;;;;;;;6.90;1.50;;;;;;;8.52;72.84;101252.13;111996;1205;23804;-59
2021/09/06 01:27:46;;;;;;;10.10;1.50;;;;;;;8.51;72.90;101253.75;112043;1204;22782;-57
2021/09/06 01:30:15;;;;;;;7.80;1.80;;;;;;;8.49;72.86;101255.86;112044;1205;22460;-58
2021/09/06 01:32:46;;;;;;;8.00;1.70;;;;;;;8.47;73.05;101257.11;111895;1205;25062;-58
2021/09/06 01:35:16;;;;;;;8.10;1.40;;;;;;;8.46;73.01;101256.48;111789;1206;25149;-60
2021/09/06 01:37:45;;;;;;;9.10;2.30;;;;;;;8.45;73.06;101255.66;112047;1203;25140;-59
2021/09/06 01:40:15;;;;;;;8.10;1.60;;;;;;;8.43;73.06;101252.05;111893;1205;23278;-57
2021/09/06 01:42:43;;;;;;;6.40;1.40;;;;;;;8.42;73.20;101251.38;111884;1204;22479;-58
2021/09/06 01:45:13;;;;;;;7.10;1.60;;;;;;;8.40;73.30;101251.66;112083;1208;22440;-58
2021/09/06 01:47:41;;;;;;;7.50;1.60;;;;;;;8.39;73.29;101252.98;112211;1204;24071;-58
2021/09/06 01:50:12;;;;;;;9.00;1.70;;;;;;;8.37;73.32;101252.55;111991;1206;23153;-58
2021/09/06 01:52:40;;;;;;;7.20;1.50;;;;;;;8.35;73.33;101253.32;112083;1204;24156;-59
2021/09/06 01:55:10;;;;;;;7.20;1.60;;;;;;;8.32;73.37;101253.80;111824;1204;22447;-59
2021/09/06 01:57:39;;;;;;;8.70;1.50;;;;;;;8.30;73.44;101257.38;112141;1205;22583;-58
2021/09/06 02:00:13;;;;;;;9.40;1.80;;;;;;;8.26;73.33;101255.32;111848;1203;23750;-58
2021/09/06 02:02:41;;;;;;;7.40;1.70;;;;;;;8.23;73.42;101250.77;111979;1203;25098;-59
2021/09/06 02:05:10;;;;;;;8.60;1.90;;;;;;;8.20;73.46;101252.98;111600;1205;24103;-58
2021/09/06 02:07:38;;;;;;;7.20;1.30;;;;;;;8.15;73.44;101257.79;112015;1205;22452;-58
2021/09/06 02:10:08;;;;;;;10.80;2.00;;;;;;;8.12;73.41;101259.15;111889;1205;24071;-57
2021/09/06 02:12:36;;;;;;;7.60;1.70;;;;;;;8.09;73.41;101257.70;111890;1203;22453;-58
2021/09/06 02:15:07;;;;;;;9.50;1.80;;;;;;;8.05;73.33;101262.35;111679;1202;25368;-58
2021/09/06 02:17:35;;;;;;;6.90;1.70;;;;;;;8.01;73.34;101263.98;111635;1204;22458;-59
2021/09/06 02:20:06;;;;;;;7.80;1.70;;;;;;;7.96;73.31;101263.16;111589;1205;22487;-59
2021/09/06 02:22:35;;;;;;;8.70;1.70;;;;;;;7.91;73.43;101260.41;111712;1205;25066;-59
2021/09/06 02:25:03;;;;;;;5.50;1.60;;;;;;;7.87;73.35;101258.46;111556;1206;22467;-59
2021/09/06 02:27:32;;;;;;;8.00;1.80;;;;;;;7.84;73.42;101258.86;111652;1205;24180;-58
2021/09/06 02:30:00;;;;;;;9.50;1.90;;;;;;;7.81;73.47;101256.88;111550;1204;26409;-59
2021/09/06 02:32:28;;;;;;;6.90;1.60;;;;;;;7.79;73.53;101257.02;111575;1205;25196;-59
2021/09/06 02:34:56;;;;;;;9.10;1.70;;;;;;;7.76;73.47;101252.00;111689;1204;24070;-59
2021/09/06 02:37:25;;;;;;;9.00;1.80;;;;;;;7.74;73.60;101257.45;111775;1205;22989;-58
2021/09/06 02:39:53;;;;;;;7.60;1.60;;;;;;;7.73;73.63;101257.39;111661;1203;22451;-59
2021/09/06 02:42:21;;;;;;;8.80;1.80;;;;;;;7.72;73.71;101258.83;111793;1205;22455;-58
2021/09/06 02:44:49;;;;;;;6.40;1.50;;;;;;;7.72;73.79;101254.41;111761;1206;22463;-58
2021/09/06 02:47:17;;;;;;;9.90;2.10;;;;;;;7.73;73.94;101254.30;111540;1204;22477;-59
2021/09/06 02:49:45;;;;;;;9.10;2.00;;;;;;;7.72;74.16;101256.05;111650;1205;22425;-60
2021/09/06 02:52:16;;;;;;;7.60;1.80;;;;;;;7.72;74.22;101256.54;111763;1206;23721;-58
2021/09/06 02:54:47;;;;;;;9.60;2.00;;;;;;;7.72;74.29;101254.71;112043;1204;25353;-58
2021/09/06 02:57:16;;;;;;;8.90;2.30;;;;;;;7.72;74.33;101248.45;111877;1206;22532;-55
2021/09/06 02:59:44;;;;;;;9.70;2.60;;;;;;;7.73;74.42;101248.90;112045;1206;24137;-59
2021/09/06 03:02:15;;;;;;;13.00;2.80;;;;;;;7.73;74.50;101249.30;111743;1203;22435;-58
2021/09/06 03:04:44;;;;;;;9.40;3.40;;;;;;;7.74;74.65;101242.13;111685;1207;22457;-59
2021/09/06 03:07:12;;;;;;;11.10;3.40;;;;;;;7.74;74.70;101246.17;111573;1206;22463;-58
2021/09/06 03:09:40;;;;;;;12.20;4.00;;;;;;;7.73;74.71;101243.50;111586;1204;22468;-58
2021/09/06 03:12:10;;;;;;;10.80;3.00;;;;;;;7.71;74.77;101245.27;111569;1204;25281;-57
2021/09/06 03:14:38;;;;;;;9.50;2.80;;;;;;;7.69;74.75;101249.54;111698;1204;25249;-59
2021/09/06 03:17:06;;;;;;;9.50;2.70;;;;;;;7.67;74.76;101247.20;111676;1203;24302;-59
2021/09/06 03:19:34;;;;;;;9.90;2.10;;;;;;;7.64;74.68;101243.97;111618;1204;22980;-58
2021/09/06 03:22:03;;;;;;;10.50;2.60;;;;;;;7.61;74.59;101245.93;111539;1204;24126;-58
2021/09/06 03:24:35;;;;;;;12.60;2.10;;;;;;;7.58;74.54;101246.42;111658;1206;24104;-58
2021/09/06 03:27:04;;;;;;;9.90;1.80;;;;;;;7.56;74.61;101249.56;111525;1204;24814;-59
2021/09/06 03:29:32;;;;;;;12.90;3.20;;;;;;;7.53;74.65;101254.95;111705;1202;23845;-59
2021/09/06 03:32:00;;;;;;;9.70;2.20;;;;;;;7.50;74.66;101251.05;111582;1205;24227;-57
2021/09/06 03:34:29;;;;;;;11.10;2.30;;;;;;;7.50;74.76;101254.46;111551;1208;22471;-61
2021/09/06 03:36:57;;;;;;;10.30;2.40;;;;;;;7.49;74.87;101254.50;111532;1205;24095;-60
2021/09/06 03:39:25;;;;;;;10.10;2.80;;;;;;;7.49;75.02;101253.78;111582;1205;25187;-60
2021/09/06 03:41:53;;;;;;;7.00;2.10;;;;;;;7.48;75.06;101251.98;111573;1202;22468;-57
2021/09/06 03:44:24;;;;;;;9.20;2.50;;;;;;;7.48;75.16;101253.02;111682;1204;25146;-58
2021/09/06 03:46:53;;;;;;;9.90;2.40;;;;;;;7.47;75.30;101247.47;111700;1205;24066;-57
2021/09/06 03:49:21;;;;;;;9.50;1.90;;;;;;;7.46;75.44;101246.55;111559;1204;25171;-58
2021/09/06 03:51:49;;;;;;;7.40;1.90;;;;;;;7.47;75.54;101246.45;111564;1206;24073;-60
2021/09/06 03:54:18;;;;;;;9.00;2.50;;;;;;;7.47;75.50;101252.48;111544;1205;24213;-59
2021/09/06 03:56:47;;;;;;;8.50;1.80;;;;;;;7.47;75.59;101250.97;111701;1204;24115;-58
2021/09/06 03:59:19;;;;;;;8.90;2.10;;;;;;;7.47;75.59;101249.61;111565;1203;22506;-59
2021/09/06 04:01:48;;;;;;;11.10;2.10;;;;;;;7.45;75.59;101251.02;111629;1203;25105;-58
2021/09/06 04:04:16;;;;;;;13.30;2.20;;;;;;;7.44;75.58;101254.54;111574;1203;24324;-61
2021/09/06 04:06:45;;;;;;;9.90;2.50;;;;;;;7.42;75.56;101256.96;111696;1204;24198;-58
2021/09/06 04:09:13;;;;;;;9.80;2.10;;;;;;;7.41;75.66;101256.13;111522;1203;22446;-58
2021/09/06 04:11:41;;;;;;;11.00;2.10;;;;;;;7.39;75.57;101255.77;111614;1203;22791;-58
2021/09/06 04:14:12;;;;;;;10.40;2.00;;;;;;;7.36;75.64;101254.17;111562;1205;22898;-59
2021/09/06 04:16:40;;;;;;;8.50;2.10;;;;;;;7.33;75.67;101256.37;111680;1206;25100;-59
2021/09/06 04:19:08;;;;;;;10.10;2.20;;;;;;;7.30;75.83;101258.90;111529;1204;25087;-59
2021/09/06 04:21:36;;;;;;;9.90;2.40;;;;;;;7.29;75.78;101257.73;111580;1203;22468;-58
2021/09/06 04:24:05;;;;;;;11.10;2.40;;;;;;;7.28;75.71;101255.86;111621;1206;25278;-61
2021/09/06 04:26:33;;;;;;;13.10;2.30;;;;;;;7.27;75.72;101253.73;111671;1203;25165;-59
2021/09/06 04:29:01;;;;;;;9.80;2.20;;;;;;;7.24;75.71;101256.49;111555;1204;22460;-59
2021/09/06 04:31:33;;;;;;;10.70;2.70;;;;;;;7.20;75.69;101254.76;111720;1205;24216;-59
2021/09/06 04:34:01;;;;;;;8.60;1.90;;;;;;;7.16;75.62;101256.36;111555;1205;25145;-59
2021/09/06 04:36:29;;;;;;;13.50;2.50;;;;;;;7.12;75.59;101254.64;111529;1204;22429;-60
2021/09/06 04:38:58;;;;;;;9.10;2.20;;;;;;;7.09;75.68;101260.34;111483;1205;24712;-58
2021/09/06 04:41:26;;;;;;;9.00;2.20;;;;;;;7.06;75.71;101260.65;111680;1206;25146;-59
2021/09/06 04:43:57;;;;;;;12.30;2.50;;;;;;;7.04;75.77;101263.79;111930;1205;23283;-57
2021/09/06 04:46:27;;;;;;;9.50;2.10;;;;;;;7.05;75.98;101275.66;111701;1203;23763;-58
2021/09/06 04:48:55;;;;;;;;;;;;;;;7.07;76.11;101277.60;111859;1205;22423;-55
2021/09/06 04:51:24;;;;;;;13.30;2.00;;;;;;;7.07;76.22;101279.34;111597;1203;22886;-57
2021/09/06 04:53:52;;;;;;;13.90;2.40;;;;;;;7.07;76.31;101277.52;111822;1203;22465;-60
2021/09/06 04:56:23;;;;;;;12.30;2.40;;;;;;;7.08;76.44;101278.36;112110;1209;22457;-61
2021/09/06 04:58:51;;;;;;;11.00;2.40;;;;;;;7.10;76.59;101278.17;112073;1204;22618;-60
2021/09/06 05:01:19;;;;;;;11.10;2.50;;;;;;;7.13;76.78;101287.92;111798;1203;24210;-60
2021/09/06 05:03:48;;;;;;;11.20;2.70;;;;;;;7.16;76.92;101288.27;111681;1202;25069;-62
2021/09/06 05:06:17;;;;;;;8.90;2.30;;;;;;;7.19;77.01;101289.55;111950;1203;22450;-59
2021/09/06 05:08:46;;;;;;;10.50;2.10;;;;;;;7.24;77.05;101290.86;111923;1204;22454;-59
2021/09/06 05:11:14;;;;;;;14.10;2.80;;;;;;;7.28;77.19;101287.59;111736;1206;24144;-59
2021/09/06 05:13:42;;;;;;;12.90;2.60;;;;;;;7.33;77.37;101291.77;111675;1203;24814;-59
2021/09/06 05:16:10;;;;;;;12.30;2.20;;;;;;;7.40;77.34;101294.47;111573;1203;22440;-59
2021/09/06 05:18:39;;;;;;;12.90;3.10;;;;;;;7.48;77.37;101296.84;111529;1203;22508;-60
2021/09/06 05:21:07;;;;;;;10.80;2.50;;;;;;;7.56;77.52;101304.25;111669;1202;22533;-58
2021/09/06 05:23:35;;;;;;;15.90;2.70;;;;;;;7.63;77.49;101307.81;111791;1204;22444;-59
2021/09/06 05:26:03;;;;;;;10.90;2.60;;;;;;;7.70;77.65;101310.36;111657;1206;22443;-60
2021/09/06 05:28:31;;;;;;;10.20;2.80;;;;;;;7.76;77.60;101313.08;111936;1204;24212;-58
2021/09/06 05:31:02;;;;;;;14.50;3.20;;;;;;;7.83;77.84;101311.15;111809;1208;22512;-57
2021/09/06 05:33:32;;;;;;;15.70;3.50;;;;;;;7.90;77.86;101310.27;111574;1204;22437;-61
2021/09/06 05:36:00;;;;;;;15.00;4.00;;;;;;;7.96;77.91;101306.21;112035;1203;22581;-58
2021/09/06 05:38:29;;;;;;;13.00;2.90;;;;;;;8.04;78.00;101306.50;111667;1203;22556;-59
2021/09/06 05:40:57;;;;;;;14.80;3.20;;;;;;;8.12;78.13;101300.23;111586;1205;25180;-59
2021/09/06 05:43:25;;;;;;;13.30;3.80;;;;;;;8.22;78.22;101298.15;111774;1204;25042;-59
2021/09/06 05:45:54;;;;;;;14.60;3.80;;;;;;;8.32;78.19;101297.77;111889;1202;24071;-58
2021/09/06 05:48:22;;;;;;;17.80;4.40;;;;;;;8.41;78.45;101299.98;111586;1203;22493;-58
2021/09/06 05:50:50;;;;;;;14.50;3.70;;;;;;;8.50;78.33;101299.73;111668;1203;22449;-60
2021/09/06 05:53:18;;;;;;;17.70;4.30;;;;;;;8.60;78.37;101302.56;111594;1203;22440;-58
2021/09/06 05:55:47;;;;;;;13.10;4.50;;;;;;;8.67;78.60;101302.59;111784;1203;22463;-58
2021/09/06 05:58:15;;;;;;;16.10;4.10;;;;;;;8.75;78.68;101301.97;111810;1204;22441;-56
2021/09/06 06:00:43;;;;;;;15.60;3.90;;;;;;;8.84;78.70;101305.21;111786;1203;22451;-57
2021/09/06 06:03:11;;;;;;;16.70;4.20;;;;;;;8.94;78.72;101303.40;111469;1204;22450;-58
2021/09/06 06:05:41;;;;;;;15.20;3.90;;;;;;;9.05;78.82;101302.30;111630;1203;22458;-58
2021/09/06 06:08:09;;;;;;;15.00;4.30;;;;;;;9.16;78.74;101305.72;111903;1204;22481;-58
2021/09/06 06:10:38;;;;;;;14.30;3.70;;;;;;;9.24;78.71;101302.91;111844;1207;24155;-59
2021/09/06 06:13:11;;;;;;;20.00;4.80;;;;;;;9.34;78.62;101308.04;111533;1204;24113;-58
2021/09/06 06:15:39;;;;;;;15.00;4.50;;;;;;;9.42;78.73;101306.01;111723;1204;22451;-60
2021/09/06 06:18:07;;;;;;;17.30;5.10;;;;;;;9.51;78.64;101309.64;111649;1204;25271;-58
2021/09/06 06:20:36;;;;;;;18.20;4.50;;;;;;;9.59;78.58;101311.91;111504;1205;22451;-59
2021/09/06 06:23:05;;;;;;;18.00;4.60;;;;;;;9.68;78.49;101312.58;115730;1204;22236;-59
2021/09/06 06:25:34;;;;;;;14.50;4.60;;;;;;;9.76;78.54;101315.59;115773;1205;22251;-61
2021/09/06 06:28:03;;;;;;;19.00;4.60;;;;;;;9.86;78.35;101315.19;115297;1203;22432;-59
2021/09/06 06:30:31;;;;;;;14.70;3.70;;;;;;;9.95;78.23;101310.05;111623;1203;22451;-59
2021/09/06 06:32:59;;;;;;;15.30;3.70;;;;;;;10.03;78.14;101315.56;111795;1203;25142;-58
2021/09/06 06:35:27;;;;;;;14.70;4.10;;;;;;;10.11;78.02;101321.00;111611;1203;22456;-59
2021/09/06 06:37:56;;;;;;;14.70;4.10;;;;;;;10.19;78.10;101322.17;111623;1203;23740;-59
2021/09/06 06:40:25;;;;;;;11.80;3.90;;;;;;;10.27;78.18;101323.80;111694;1203;24548;-59
2021/09/06 06:42:53;;;;;;;18.00;4.10;;;;;;;10.37;78.25;101321.46;111673;1202;22563;-61
2021/09/06 06:45:21;;;;;;;14.90;4.50;;;;;;;10.45;78.23;101322.52;111654;1203;22451;-61
2021/09/06 06:47:51;;;;;;;13.40;4.30;;;;;;;10.52;78.16;101332.16;111804;1203;22461;-59
2021/09/06 06:50:24;;;;;;;13.00;2.80;;;;;;;10.59;77.95;101332.70;111697;1203;22645;-60
2021/09/06 06:52:54;;;;;;;13.90;3.80;;;;;;;10.65;77.79;101331.55;111658;1203;24951;-61
2021/09/06 06:55:23;;;;;;;14.20;3.30;;;;;;;10.73;77.79;101330.64;112051;1203;22441;-61
2021/09/06 06:57:52;;;;;;;16.40;4.00;;;;;;;10.80;77.79;101334.35;112098;1203;23384;-58
2021/09/06 07:00:21;;;;;;;14.60;3.30;;;;;;;10.87;77.62;101330.60;112026;1203;22445;-58
2021/09/06 07:02:50;;;;;;;16.70;4.40;;;;;;;10.95;77.57;101331.16;112481;1204;22464;-61
2021/09/06 07:05:19;;;;;;;13.40;3.60;;;;;;;11.04;77.88;101335.55;112474;1203;22551;-59
2021/09/06 07:07:48;;;;;;;15.50;3.30;;;;;;;11.14;77.78;101334.75;112405;1203;25204;-59
2021/09/06 07:10:18;;;;;;;14.50;3.30;;;;;;;11.23;77.62;101340.73;112537;1203;24089;-59
2021/09/06 07:12:46;;;;;;;17.30;2.40;;;;;;;11.35;77.49;101337.08;112487;1197;25232;-58
2021/09/06 07:15:14;;;;;;;18.60;3.20;;;;;;;11.47;77.36;101336.29;112387;1204;22445;-58
2021/09/06 07:17:43;;;;;;;19.80;3.00;;;;;;;11.57;77.26;101336.77;112491;1203;25685;-58
2021/09/06 07:20:13;;;;;;;14.20;2.90;;;;;;;11.69;77.13;101336.67;112366;1204;24214;-58
2021/09/06 07:22:42;;;;;;;12.10;3.00;;;;;;;11.78;76.92;101338.75;112444;1203;22562;-59
2021/09/06 07:25:12;;;;;;;15.80;3.20;;;;;;;11.87;76.54;101336.45;112400;1203;22458;-59
2021/09/06 07:27:40;;;;;;;14.90;3.30;;;;;;;11.97;76.38;101342.05;112484;1202;22488;-59
2021/09/06 07:30:10;;;;;;;10.00;2.20;;;;;;;12.07;76.05;101340.02;112459;1203;23774;-59
2021/09/06 07:32:40;;;;;;;14.60;2.40;;;;;;;12.20;75.73;101341.42;112466;1203;24146;-59
2021/09/06 07:35:10;;;;;;;8.80;1.80;;;;;;;12.30;75.53;101335.48;112604;1204;22380;-59
2021/09/06 07:37:38;;;;;;;7.20;1.50;;;;;;;12.41;75.49;101338.36;112446;1203;22496;-59
2021/09/06 07:40:11;;;;;;;7.40;1.40;;;;;;;12.55;75.30;101339.04;112365;1203;24816;-59
2021/09/06 07:42:39;;;;;;;10.60;1.50;;;;;;;12.71;74.79;101337.44;112509;1203;22454;-59
2021/09/06 07:45:12;;;;;;;9.90;1.70;;;;;;;12.82;74.07;101340.30;112478;1203;22454;-61
2021/09/06 07:47:42;;;;;;;6.50;1.50;;;;;;;12.89;73.65;101339.19;112348;1203;25444;-59
2021/09/06 07:50:14;;;;;;;8.30;1.70;;;;;;;12.98;73.51;101336.52;112487;1203;25097;-59
2021/09/06 07:52:42;;;;;;;9.00;1.40;;;;;;;13.10;73.45;101342.85;112382;1203;22444;-58
2021/09/06 07:55:12;;;;;;;7.20;1.20;;;;;;;13.19;73.17;101337.35;112463;1203;22457;-58
2021/09/06 07:57:40;;;;;;;8.10;1.20;;;;;;;13.30;72.68;101339.16;112336;1203;25081;-59
2021/09/06 08:00:11;;;;;;;7.50;1.50;;;;;;;13.42;72.49;101339.73;112376;1203;22595;-59
2021/09/06 08:02:39;;;;;;;;;;;;;;;13.54;72.08;101340.52;112612;1203;23823;-59
2021/09/06 08:05:10;;;;;;;8.30;1.20;;;;;;;13.67;71.66;101342.01;112564;1203;22862;-59
2021/09/06 08:07:38;;;;;;;8.70;1.20;;;;;;;13.74;71.28;101346.41;113604;1203;22490;-60
2021/09/06 08:10:09;;;;;;;7.20;1.20;;;;;;;13.83;71.50;101346.48;112855;1203;25341;-60
2021/09/06 08:12:37;;;;;;;6.50;1.30;;;;;;;13.94;71.20;101352.55;112414;1203;22507;-59
2021/09/06 08:15:08;;;;;;;6.10;1.20;;;;;;;14.05;71.12;101351.02;112415;1203;24144;-59
2021/09/06 08:17:37;;;;;;;4.60;0.90;;;;;;;14.18;70.19;101346.66;112403;1203;22898;-59
2021/09/06 08:20:10;;;;;;;6.50;1.10;;;;;;;14.32;69.77;101349.03;112419;1203;22430;-59
2021/09/06 08:22:41;;;;;;;5.70;1.00;;;;;;;14.45;69.50;101350.23;112479;1203;22481;-59
2021/09/06 08:25:12;;;;;;;9.40;1.00;;;;;;;14.56;68.93;101348.43;112462;1203;23704;-58
2021/09/06 08:27:41;;;;;;;7.90;0.90;;;;;;;14.67;68.22;101344.08;112426;1203;22429;-59
2021/09/06 08:30:14;;;;;;;4.30;0.80;;;;;;;14.70;67.65;101347.30;112410;1203;22535;-58
2021/09/06 08:32:43;;;;;;;;;;;;;;;14.74;67.18;101350.72;112459;1203;25193;-59
2021/09/06 08:35:13;;;;;;;4.90;0.80;;;;;;;14.81;66.81;101351.83;112363;1203;22432;-60
2021/09/06 08:37:41;;;;;;;4.40;0.90;;;;;;;14.88;66.76;101353.59;112486;1202;25857;-60
2021/09/06 08:40:13;;;;;;;5.00;0.90;;;;;;;14.95;66.33;101356.98;112430;1203;25050;-60
2021/09/06 08:42:42;;;;;;;4.20;0.90;;;;;;;15.04;65.97;101360.60;112461;1200;22434;-60
2021/09/06 08:45:24;;;;;;;;;;;;;;;;;;;;;
2021/09/06 08:47:57;;;;;;;6.50;0.70;;;;;;;15.20;64.66;101359.81;112266;1203;24216;-59
2021/09/06 08:50:27;;;;;;;2.60;0.60;;;;;;;15.26;64.08;101364.53;112289;1203;22532;-59
2021/09/06 08:52:56;;;;;;;5.80;0.90;;;;;;;15.33;64.00;101363.13;112408;1203;22453;-59
2021/09/06 08:55:24;;;;;;;3.50;0.70;;;;;;;15.42;63.63;101356.88;112564;1203;22558;-59
2021/09/06 08:57:53;;;;;;;4.80;0.70;;;;;;;15.49;63.15;101363.07;112493;1203;22739;-59
2021/09/06 09:00:31;;;;;;;2.90;0.80;;;;;;;15.55;62.53;101357.27;112330;1203;22483;-59
2021/09/06 09:03:00;;;;;;;4.00;0.70;;;;;;;15.61;62.33;101359.69;112489;1203;22465;-58
2021/09/06 09:05:43;;;;;;;10.20;0.90;;;;;;;15.67;62.20;101358.95;112412;1203;22466;-60
2021/09/06 09:08:13;;;;;;;5.20;0.90;;;;;;;15.73;61.64;101357.26;112313;1202;22449;-59
2021/09/06 09:10:42;;;;;;;3.40;0.70;;;;;;;15.81;61.67;101355.23;112430;1203;22605;-59
2021/09/06 09:13:10;;;;;;;3.50;0.60;;;;;;;15.92;61.67;101351.92;112506;1203;22434;-60
2021/09/06 09:15:39;;;;;;;5.10;0.70;;;;;;;16.02;61.21;101354.33;112332;1203;25204;-59
2021/09/06 09:18:10;;;;;;;4.40;1.10;;;;;;;16.08;60.75;101351.15;112357;1203;22448;-60
2021/09/06 09:20:42;;;;;;;4.20;0.70;;;;;;;16.13;60.71;101346.61;112383;1203;24110;-58
2021/09/06 09:23:13;;;;;;;4.50;0.80;;;;;;;16.17;59.95;101345.89;112358;1203;22475;-59
2021/09/06 09:25:42;;;;;;;5.00;0.90;;;;;;;16.24;59.87;101343.16;112444;1203;24077;-59
2021/09/06 09:28:11;;;;;;;3.40;0.80;;;;;;;16.31;59.68;101343.46;112299;1203;26348;-58
2021/09/06 09:30:41;;;;;;;;;;;;;;;16.37;59.46;101344.35;112373;1203;23583;-60
2021/09/06 09:33:12;;;;;;;4.50;0.80;;;;;;;16.41;59.47;101343.13;112332;1203;22454;-59
2021/09/06 09:35:41;;;;;;;5.10;1.00;;;;;;;16.44;58.60;101340.45;112336;1203;23804;-60
2021/09/06 09:38:11;;;;;;;5.00;0.80;;;;;;;16.50;58.65;101339.30;112400;1203;22468;-59
2021/09/06 09:40:42;;;;;;;5.70;0.90;;;;;;;16.56;57.95;101338.69;112413;1203;23860;-59
2021/09/06 09:43:11;;;;;;;6.60;1.00;;;;;;;16.61;57.81;101339.52;112334;1203;22679;-59
2021/09/06 09:45:41;;;;;;;3.90;0.70;;;;;;;16.65;57.87;101338.53;112430;1203;25285;-60
2021/09/06 09:48:11;;;;;;;5.20;0.90;;;;;;;16.68;58.01;101339.39;112415;1203;22448;-59
2021/09/06 09:50:39;;;;;;;5.40;0.90;;;;;;;16.75;58.08;101333.06;112496;1203;23814;-61
2021/09/06 09:53:07;;;;;;;4.50;0.80;;;;;;;16.84;57.41;101334.19;112370;1203;24183;-59
2021/09/06 09:55:36;;;;;;;8.90;0.90;;;;;;;16.91;56.85;101330.52;112344;1203;22456;-58
2021/09/06 09:58:05;;;;;;;5.10;0.80;;;;;;;16.98;56.96;101328.84;112140;1203;22565;-59
2021/09/06 10:00:36;;;;;;;6.20;1.00;;;;;;;17.06;56.80;101322.00;111787;1203;22451;-59
2021/09/06 10:03:13;;;;;;;5.70;0.90;;;;;;;17.13;56.74;101323.97;111934;1203;22639;-59
2021/09/06 10:05:42;;;;;;;4.60;1.00;;;;;;;17.18;55.92;101321.50;111894;1203;22544;-60
2021/09/06 10:08:15;;;;;;;4.70;0.70;;;;;;;17.25;55.86;101324.18;111935;1203;25046;-59
2021/09/06 10:10:43;;;;;;;4.40;0.90;;;;;;;17.27;55.66;101318.88;111762;1203;22585;-59
2021/09/06 10:13:14;;;;;;;3.20;0.80;;;;;;;17.27;55.05;101313.52;111710;1203;22495;-58
2021/09/06 10:15:45;;;;;;;6.00;0.70;;;;;;;17.27;54.66;101309.27;111870;1203;22457;-60
2021/09/06 10:18:18;;;;;;;5.60;0.60;;;;;;;17.31;55.08;101314.85;111853;1203;23630;-60
2021/09/06 10:20:57;;;;;;;5.80;0.80;;;;;;;17.34;54.39;101310.00;111700;1203;22543;-61
2021/09/06 10:23:26;;;;;;;4.40;0.80;;;;;;;17.37;54.30;101307.61;111708;1203;22477;-61
2021/09/06 10:26:05;;;;;;;;;;;;;;;;;;;;;
2021/09/06 10:28:33;;;;;;;4.80;0.70;;;;;;;17.45;54.03;101303.31;111723;1203;22448;-58
2021/09/06 10:31:03;;;;;;;7.00;0.90;;;;;;;17.49;53.90;101303.21;111720;1203;22466;-59
2021/09/06 10:33:34;;;;;;;6.70;0.80;;;;;;;17.53;53.77;101301.14;111811;1203;22621;-60
2021/09/06 10:36:11;;;;;;;3.90;0.90;;;;;;;17.59;53.17;101299.76;111859;1203;24265;-59
2021/09/06 10:38:42;;;;;;;3.90;0.70;;;;;;;17.67;53.00;101301.30;111797;1202;26299;-59
2021/09/06 10:41:14;;;;;;;3.20;0.80;;;;;;;17.76;52.90;101300.70;111969;1203;22550;-59
2021/09/06 10:43:45;;;;;;;5.10;0.80;;;;;;;17.83;52.71;101290.98;111751;1203;24209;-60
2021/09/06 10:46:14;;;;;;;7.10;1.00;;;;;;;17.84;52.46;101292.98;111732;1203;25299;-59
2021/09/06 10:48:44;;;;;;;7.00;1.00;;;;;;;17.87;52.56;101289.67;111856;1203;25167;-58
2021/09/06 10:51:12;;;;;;;6.40;0.90;;;;;;;17.93;52.42;101281.27;111806;1202;22516;-58
2021/09/06 10:53:41;;;;;;;5.60;0.90;;;;;;;18.00;52.33;101279.83;111800;1203;24090;-60
2021/09/06 10:56:12;;;;;;;5.30;0.80;;;;;;;18.03;51.81;101284.46;111710;1203;23304;-59
2021/09/06 10:58:40;;;;;;;6.10;0.70;;;;;;;18.04;51.32;101282.94;111840;1203;22596;-61
2021/09/06 11:01:10;;;;;;;4.10;0.70;;;;;;;18.03;50.60;101279.39;111987;1203;24058;-58
2021/09/06 11:03:43;;;;;;;3.50;0.80;;;;;;;18.03;49.89;101280.46;112061;1203;22456;-59
2021/09/06 11:06:13;;;;;;;5.70;0.90;;;;;;;18.06;50.10;101279.25;111662;1203;22499;-61
2021/09/06 11:08:45;;;;;;;4.90;0.70;;;;;;;18.13;50.02;101278.96;111901;1203;25173;-59
2021/09/06 11:11:33;;;;;;;3.40;0.50;;;;;;;18.20;49.35;101278.95;111801;1203;23844;-60
2021/09/06 11:14:01;;;;;;;5.10;0.80;;;;;;;18.25;49.16;101279.13;112065;1203;22449;-59
2021/09/06 11:16:38;;;;;;;10.70;1.70;;;;;;;18.27;48.98;101275.38;112137;1203;22443;-61
2021/09/06 11:19:16;;;;;;;9.30;0.80;;;;;;;18.29;49.29;101269.38;111866;1203;22562;-60
2021/09/06 11:21:46;;;;;;;8.00;0.90;;;;;;;18.35;49.60;101266.33;111782;1203;22499;-59
2021/09/06 11:24:22;;;;;;;7.70;0.80;;;;;;;18.41;49.12;101265.27;111672;1203;22470;-59
2021/09/06 11:26:54;;;;;;;5.10;0.60;;;;;;;18.45;49.03;101268.96;111677;1203;24653;-60
2021/09/06 11:29:22;;;;;;;5.30;0.70;;;;;;;18.49;48.99;101267.05;111735;1203;22461;-60
2021/09/06 11:31:54;;;;;;;6.50;0.80;;;;;;;18.52;48.51;101264.70;111719;1203;25160;-59